sensor_id;sensor_type;location;lat;lon;timestamp;temperature;humidity
12588;DHT22;6359;51.450;7.346;2023-04-03T00:00:06;-1.90;99.90
12588;DHT22;6359;51.450;7.346;2023-04-03T00:02:33;-1.90;99.90
12588;DHT22;6359;51.450;7.346;2023-04-03T00:05:00;-1.90;99.90
12588;DHT22;6359;51.450;7.346;2023-04-03T00:07:27;-1.90;99.90
12588;DHT22;6359;51.450;7.346;2023-04-03T00:09:56;-1.90;99.90
12588;DHT22;6359;51.450;7.346;2023-04-03T00:12:23;-1.90;99.90
12588;DHT22;6359;51.450;7.346;2023-04-03T00:14:50;-1.80;99.90
12588;DHT22;6359;51.450;7.346;2023-04-03T00:17:17;-1.90;99.90
12588;DHT22;6359;51.450;7.346;2023-04-03T00:19:44;-1.90;99.90
12588;DHT22;6359;51.450;7.346;2023-04-03T00:22:11;-1.90;99.90
12588;DHT22;6359;51.450;7.346;2023-04-03T00:24:38;-1.90;99.90
12588;DHT22;6359;51.450;7.346;2023-04-03T00:27:07;-2.00;99.90
12588;DHT22;6359;51.450;7.346;2023-04-03T00:29:34;-2.00;99.90
12588;DHT22;6359;51.450;7.346;2023-04-03T00:32:01;-2.10;99.90
12588;DHT22;6359;51.450;7.346;2023-04-03T00:34:28;-2.10;99.90
12588;DHT22;6359;51.450;7.346;2023-04-03T00:36:55;-2.10;99.90
12588;DHT22;6359;51.450;7.346;2023-04-03T00:39:23;-2.20;99.90
12588;DHT22;6359;51.450;7.346;2023-04-03T00:41:50;-2.20;99.90
12588;DHT22;6359;51.450;7.346;2023-04-03T00:47:28;-2.10;99.90
12588;DHT22;6359;51.450;7.346;2023-04-03T00:49:57;-2.10;99.90
12588;DHT22;6359;51.450;7.346;2023-04-03T00:52:28;-2.10;99.90
12588;DHT22;6359;51.450;7.346;2023-04-03T00:54:59;-2.00;99.90
12588;DHT22;6359;51.450;7.346;2023-04-03T00:57:30;-2.00;99.90
12588;DHT22;6359;51.450;7.346;2023-04-03T01:00:02;-2.00;99.90
12588;DHT22;6359;51.450;7.346;2023-04-03T01:02:30;-2.00;99.90
12588;DHT22;6359;51.450;7.346;2023-04-03T01:04:57;-1.90;99.90
12588;DHT22;6359;51.450;7.346;2023-04-03T01:07:27;-2.00;99.90
12588;DHT22;6359;51.450;7.346;2023-04-03T01:09:57;-1.90;99.90
12588;DHT22;6359;51.450;7.346;2023-04-03T01:12:26;-2.00;99.90
12588;DHT22;6359;51.450;7.346;2023-04-03T01:14:55;-2.10;99.90
12588;DHT22;6359;51.450;7.346;2023-04-03T01:17:30;-2.20;99.90
12588;DHT22;6359;51.450;7.346;2023-04-03T01:23:01;-2.00;99.90
12588;DHT22;6359;51.450;7.346;2023-04-03T01:25:29;-2.00;99.90
12588;DHT22;6359;51.450;7.346;2023-04-03T01:27:56;-2.00;99.90
12588;DHT22;6359;51.450;7.346;2023-04-03T01:30:28;-2.00;99.90
12588;DHT22;6359;51.450;7.346;2023-04-03T01:32:58;-2.20;99.90
12588;DHT22;6359;51.450;7.346;2023-04-03T01:35:25;-2.30;99.90
12588;DHT22;6359;51.450;7.346;2023-04-03T01:37:52;-2.20;99.90
12588;DHT22;6359;51.450;7.346;2023-04-03T01:40:19;-2.10;99.90
12588;DHT22;6359;51.450;7.346;2023-04-03T01:42:46;-2.10;99.90
12588;DHT22;6359;51.450;7.346;2023-04-03T01:45:14;-2.20;99.90
12588;DHT22;6359;51.450;7.346;2023-04-03T01:47:41;-2.20;99.90
12588;DHT22;6359;51.450;7.346;2023-04-03T01:50:09;-2.00;99.90
12588;DHT22;6359;51.450;7.346;2023-04-03T01:52:37;-1.90;99.90
12588;DHT22;6359;51.450;7.346;2023-04-03T01:55:04;-1.90;99.90
12588;DHT22;6359;51.450;7.346;2023-04-03T01:57:31;-1.80;99.90
12588;DHT22;6359;51.450;7.346;2023-04-03T01:59:59;-1.80;99.90
12588;DHT22;6359;51.450;7.346;2023-04-03T02:02:26;-1.70;99.90
12588;DHT22;6359;51.450;7.346;2023-04-03T02:04:53;-1.50;99.90
12588;DHT22;6359;51.450;7.346;2023-04-03T02:07:22;-1.50;99.90
12588;DHT22;6359;51.450;7.346;2023-04-03T02:09:48;-1.60;99.90
12588;DHT22;6359;51.450;7.346;2023-04-03T02:12:16;-1.70;99.90
12588;DHT22;6359;51.450;7.346;2023-04-03T02:14:43;-1.80;99.90
12588;DHT22;6359;51.450;7.346;2023-04-03T02:17:10;-1.70;99.90
12588;DHT22;6359;51.450;7.346;2023-04-03T02:19:37;-1.70;99.90
12588;DHT22;6359;51.450;7.346;2023-04-03T02:22:04;-1.80;99.90
12588;DHT22;6359;51.450;7.346;2023-04-03T02:24:33;-1.90;99.90
12588;DHT22;6359;51.450;7.346;2023-04-03T02:27:00;-2.00;99.90
12588;DHT22;6359;51.450;7.346;2023-04-03T02:29:27;-1.80;99.90
12588;DHT22;6359;51.450;7.346;2023-04-03T02:31:54;-1.50;99.90
12588;DHT22;6359;51.450;7.346;2023-04-03T02:34:21;-1.50;99.90
12588;DHT22;6359;51.450;7.346;2023-04-03T02:36:48;-1.60;99.90
12588;DHT22;6359;51.450;7.346;2023-04-03T02:39:16;-1.60;99.90
12588;DHT22;6359;51.450;7.346;2023-04-03T02:41:44;-1.70;99.90
12588;DHT22;6359;51.450;7.346;2023-04-03T02:44:12;-1.70;99.90
12588;DHT22;6359;51.450;7.346;2023-04-03T02:46:39;-1.80;99.90
12588;DHT22;6359;51.450;7.346;2023-04-03T02:49:06;-1.70;99.90
12588;DHT22;6359;51.450;7.346;2023-04-03T02:51:33;-1.70;99.90
12588;DHT22;6359;51.450;7.346;2023-04-03T02:54:00;-1.60;99.90
12588;DHT22;6359;51.450;7.346;2023-04-03T02:56:27;-1.60;99.90
12588;DHT22;6359;51.450;7.346;2023-04-03T02:58:56;-1.50;99.90
12588;DHT22;6359;51.450;7.346;2023-04-03T03:01:23;-1.50;99.90
12588;DHT22;6359;51.450;7.346;2023-04-03T03:03:50;-1.40;99.90
12588;DHT22;6359;51.450;7.346;2023-04-03T03:06:17;-1.40;99.90
12588;DHT22;6359;51.450;7.346;2023-04-03T03:08:44;-1.20;99.90
12588;DHT22;6359;51.450;7.346;2023-04-03T03:11:11;-1.00;99.90
12588;DHT22;6359;51.450;7.346;2023-04-03T03:13:38;-0.80;99.90
12588;DHT22;6359;51.450;7.346;2023-04-03T03:16:08;-0.70;99.90
12588;DHT22;6359;51.450;7.346;2023-04-03T03:18:35;-0.60;99.90
12588;DHT22;6359;51.450;7.346;2023-04-03T03:21:03;-0.60;99.90
12588;DHT22;6359;51.450;7.346;2023-04-03T03:23:32;-0.50;99.90
12588;DHT22;6359;51.450;7.346;2023-04-03T03:26:01;-0.50;99.90
12588;DHT22;6359;51.450;7.346;2023-04-03T03:28:29;-0.40;99.90
12588;DHT22;6359;51.450;7.346;2023-04-03T03:30:56;-0.40;99.90
12588;DHT22;6359;51.450;7.346;2023-04-03T03:33:25;-0.40;99.90
12588;DHT22;6359;51.450;7.346;2023-04-03T03:35:53;-0.40;99.90
12588;DHT22;6359;51.450;7.346;2023-04-03T03:38:21;-0.40;99.90
12588;DHT22;6359;51.450;7.346;2023-04-03T03:40:48;-0.30;99.90
12588;DHT22;6359;51.450;7.346;2023-04-03T03:43:16;-0.30;99.90
12588;DHT22;6359;51.450;7.346;2023-04-03T03:45:44;-0.30;99.90
12588;DHT22;6359;51.450;7.346;2023-04-03T03:48:12;-0.50;99.90
12588;DHT22;6359;51.450;7.346;2023-04-03T03:50:40;-0.50;99.90
12588;DHT22;6359;51.450;7.346;2023-04-03T03:53:07;-0.50;99.90
12588;DHT22;6359;51.450;7.346;2023-04-03T03:55:34;-0.50;99.90
12588;DHT22;6359;51.450;7.346;2023-04-03T03:58:01;-0.40;99.90
12588;DHT22;6359;51.450;7.346;2023-04-03T04:00:29;-0.50;99.90
12588;DHT22;6359;51.450;7.346;2023-04-03T04:02:56;-0.50;99.90
12588;DHT22;6359;51.450;7.346;2023-04-03T04:05:23;-0.40;99.90
12588;DHT22;6359;51.450;7.346;2023-04-03T04:07:51;-0.50;99.90
12588;DHT22;6359;51.450;7.346;2023-04-03T04:10:19;-0.50;99.90
12588;DHT22;6359;51.450;7.346;2023-04-03T04:12:46;-0.50;99.90
12588;DHT22;6359;51.450;7.346;2023-04-03T04:15:14;-0.50;99.90
12588;DHT22;6359;51.450;7.346;2023-04-03T04:17:41;-0.50;99.90
12588;DHT22;6359;51.450;7.346;2023-04-03T04:20:09;-0.60;99.90
12588;DHT22;6359;51.450;7.346;2023-04-03T04:22:37;-0.50;99.90
12588;DHT22;6359;51.450;7.346;2023-04-03T04:25:06;-0.50;99.90
12588;DHT22;6359;51.450;7.346;2023-04-03T04:27:33;-0.60;99.90
12588;DHT22;6359;51.450;7.346;2023-04-03T04:30:00;-0.60;99.90
12588;DHT22;6359;51.450;7.346;2023-04-03T04:32:28;-0.60;99.90
12588;DHT22;6359;51.450;7.346;2023-04-03T04:34:55;-0.60;99.90
12588;DHT22;6359;51.450;7.346;2023-04-03T04:37:22;-0.60;99.90
12588;DHT22;6359;51.450;7.346;2023-04-03T04:39:49;-0.60;99.90
12588;DHT22;6359;51.450;7.346;2023-04-03T04:42:18;-0.60;99.90
12588;DHT22;6359;51.450;7.346;2023-04-03T04:44:45;-0.60;99.90
12588;DHT22;6359;51.450;7.346;2023-04-03T04:47:12;-0.60;99.90
12588;DHT22;6359;51.450;7.346;2023-04-03T04:49:39;-0.60;99.90
12588;DHT22;6359;51.450;7.346;2023-04-03T04:52:07;-0.60;99.90
12588;DHT22;6359;51.450;7.346;2023-04-03T04:54:34;-0.50;99.90
12588;DHT22;6359;51.450;7.346;2023-04-03T04:57:01;-0.50;99.90
12588;DHT22;6359;51.450;7.346;2023-04-03T04:59:29;-0.40;99.90
12588;DHT22;6359;51.450;7.346;2023-04-03T05:01:56;-0.50;99.90
12588;DHT22;6359;51.450;7.346;2023-04-03T05:04:24;-0.50;99.90
12588;DHT22;6359;51.450;7.346;2023-04-03T05:06:51;-0.40;99.90
12588;DHT22;6359;51.450;7.346;2023-04-03T05:09:18;-0.40;99.90
12588;DHT22;6359;51.450;7.346;2023-04-03T05:11:45;-0.40;99.90
12588;DHT22;6359;51.450;7.346;2023-04-03T05:14:12;-0.40;99.90
12588;DHT22;6359;51.450;7.346;2023-04-03T05:16:41;-0.40;99.90
12588;DHT22;6359;51.450;7.346;2023-04-03T05:19:08;-0.40;99.90
12588;DHT22;6359;51.450;7.346;2023-04-03T05:21:35;-0.30;99.90
12588;DHT22;6359;51.450;7.346;2023-04-03T05:24:02;-0.30;99.90
12588;DHT22;6359;51.450;7.346;2023-04-03T05:26:30;-0.30;99.90
12588;DHT22;6359;51.450;7.346;2023-04-03T05:28:57;-0.20;99.90
12588;DHT22;6359;51.450;7.346;2023-04-03T05:31:24;-0.20;99.90
12588;DHT22;6359;51.450;7.346;2023-04-03T05:33:56;-0.20;99.90
12588;DHT22;6359;51.450;7.346;2023-04-03T05:36:23;-0.20;99.90
12588;DHT22;6359;51.450;7.346;2023-04-03T05:38:51;-0.10;99.90
12588;DHT22;6359;51.450;7.346;2023-04-03T05:41:18;-0.10;99.90
12588;DHT22;6359;51.450;7.346;2023-04-03T05:43:46;0.00;99.90
12588;DHT22;6359;51.450;7.346;2023-04-03T05:46:14;0.00;99.90
12588;DHT22;6359;51.450;7.346;2023-04-03T05:48:41;0.00;99.90
12588;DHT22;6359;51.450;7.346;2023-04-03T05:51:15;0.10;99.90
12588;DHT22;6359;51.450;7.346;2023-04-03T05:53:43;0.10;99.90
12588;DHT22;6359;51.450;7.346;2023-04-03T05:56:10;0.20;99.90
12588;DHT22;6359;51.450;7.346;2023-04-03T05:58:37;0.10;99.90
12588;DHT22;6359;51.450;7.346;2023-04-03T06:01:07;0.20;99.90
12588;DHT22;6359;51.450;7.346;2023-04-03T06:03:34;0.20;99.90
12588;DHT22;6359;51.450;7.346;2023-04-03T06:06:03;0.30;99.90
12588;DHT22;6359;51.450;7.346;2023-04-03T06:08:32;0.30;99.90
12588;DHT22;6359;51.450;7.346;2023-04-03T06:11:00;0.40;99.90
12588;DHT22;6359;51.450;7.346;2023-04-03T06:13:28;0.40;99.90
12588;DHT22;6359;51.450;7.346;2023-04-03T06:15:55;0.40;99.90
12588;DHT22;6359;51.450;7.346;2023-04-03T06:18:22;0.50;99.90
12588;DHT22;6359;51.450;7.346;2023-04-03T06:20:50;0.50;99.90
12588;DHT22;6359;51.450;7.346;2023-04-03T06:23:17;0.60;99.90
12588;DHT22;6359;51.450;7.346;2023-04-03T06:25:45;0.60;99.90
12588;DHT22;6359;51.450;7.346;2023-04-03T06:28:13;0.70;99.90
12588;DHT22;6359;51.450;7.346;2023-04-03T06:30:40;0.70;99.90
12588;DHT22;6359;51.450;7.346;2023-04-03T06:33:07;0.80;99.90
12588;DHT22;6359;51.450;7.346;2023-04-03T06:35:34;0.80;99.90
12588;DHT22;6359;51.450;7.346;2023-04-03T06:38:02;0.90;99.90
12588;DHT22;6359;51.450;7.346;2023-04-03T06:40:33;0.90;99.90
12588;DHT22;6359;51.450;7.346;2023-04-03T06:43:01;1.00;99.90
12588;DHT22;6359;51.450;7.346;2023-04-03T06:45:28;1.20;99.90
12588;DHT22;6359;51.450;7.346;2023-04-03T06:47:56;1.30;99.90
12588;DHT22;6359;51.450;7.346;2023-04-03T06:50:23;1.50;99.90
12588;DHT22;6359;51.450;7.346;2023-04-03T06:52:50;2.30;99.90
12588;DHT22;6359;51.450;7.346;2023-04-03T06:55:17;4.20;99.90
12588;DHT22;6359;51.450;7.346;2023-04-03T06:57:44;5.90;99.90
12588;DHT22;6359;51.450;7.346;2023-04-03T07:00:14;7.50;99.90
12588;DHT22;6359;51.450;7.346;2023-04-03T07:02:41;8.80;99.90
12588;DHT22;6359;51.450;7.346;2023-04-03T07:05:09;9.70;99.90
12588;DHT22;6359;51.450;7.346;2023-04-03T07:07:36;10.40;99.90
12588;DHT22;6359;51.450;7.346;2023-04-03T07:10:04;10.80;99.90
12588;DHT22;6359;51.450;7.346;2023-04-03T07:12:31;10.80;99.90
12588;DHT22;6359;51.450;7.346;2023-04-03T07:14:58;11.10;99.90
12588;DHT22;6359;51.450;7.346;2023-04-03T07:17:27;11.60;99.90
12588;DHT22;6359;51.450;7.346;2023-04-03T07:19:54;12.10;99.90
12588;DHT22;6359;51.450;7.346;2023-04-03T07:22:21;12.10;99.90
12588;DHT22;6359;51.450;7.346;2023-04-03T07:24:48;12.80;99.90
12588;DHT22;6359;51.450;7.346;2023-04-03T07:27:16;13.40;99.90
12588;DHT22;6359;51.450;7.346;2023-04-03T07:29:43;13.30;99.90
12588;DHT22;6359;51.450;7.346;2023-04-03T07:32:10;13.00;99.90
12588;DHT22;6359;51.450;7.346;2023-04-03T07:34:38;13.10;99.90
12588;DHT22;6359;51.450;7.346;2023-04-03T07:37:06;13.00;99.90
12588;DHT22;6359;51.450;7.346;2023-04-03T07:39:34;13.00;99.90
12588;DHT22;6359;51.450;7.346;2023-04-03T07:42:02;13.50;99.90
12588;DHT22;6359;51.450;7.346;2023-04-03T07:44:29;13.10;99.90
12588;DHT22;6359;51.450;7.346;2023-04-03T07:46:56;13.00;99.90
12588;DHT22;6359;51.450;7.346;2023-04-03T07:49:23;12.80;99.90
12588;DHT22;6359;51.450;7.346;2023-04-03T07:51:53;13.10;99.90
12588;DHT22;6359;51.450;7.346;2023-04-03T07:54:19;13.50;99.90
12588;DHT22;6359;51.450;7.346;2023-04-03T07:56:47;14.00;99.90
12588;DHT22;6359;51.450;7.346;2023-04-03T07:59:14;14.40;99.90
12588;DHT22;6359;51.450;7.346;2023-04-03T08:01:41;14.50;99.90
12588;DHT22;6359;51.450;7.346;2023-04-03T08:04:08;14.80;99.90
12588;DHT22;6359;51.450;7.346;2023-04-03T08:06:35;14.60;99.90
12588;DHT22;6359;51.450;7.346;2023-04-03T08:09:04;14.10;99.90
12588;DHT22;6359;51.450;7.346;2023-04-03T08:11:31;14.30;99.90
12588;DHT22;6359;51.450;7.346;2023-04-03T08:13:58;14.90;99.90
12588;DHT22;6359;51.450;7.346;2023-04-03T08:16:25;14.90;99.90
12588;DHT22;6359;51.450;7.346;2023-04-03T08:18:53;14.50;99.90
12588;DHT22;6359;51.450;7.346;2023-04-03T08:21:21;14.00;99.90
12588;DHT22;6359;51.450;7.346;2023-04-03T08:23:49;13.70;99.90
12588;DHT22;6359;51.450;7.346;2023-04-03T08:26:20;13.20;99.90
12588;DHT22;6359;51.450;7.346;2023-04-03T08:28:47;14.30;99.90
12588;DHT22;6359;51.450;7.346;2023-04-03T08:31:17;14.80;99.90
12588;DHT22;6359;51.450;7.346;2023-04-03T08:33:45;15.20;99.90
12588;DHT22;6359;51.450;7.346;2023-04-03T08:36:18;15.60;99.90
12588;DHT22;6359;51.450;7.346;2023-04-03T08:38:46;15.80;99.90
12588;DHT22;6359;51.450;7.346;2023-04-03T08:41:15;15.20;99.90
12588;DHT22;6359;51.450;7.346;2023-04-03T08:43:56;14.70;99.90
12588;DHT22;6359;51.450;7.346;2023-04-03T08:46:31;14.40;99.90
12588;DHT22;6359;51.450;7.346;2023-04-03T08:49:00;13.90;99.90
12588;DHT22;6359;51.450;7.346;2023-04-03T08:51:28;14.20;99.90
12588;DHT22;6359;51.450;7.346;2023-04-03T08:53:58;13.80;99.90
12588;DHT22;6359;51.450;7.346;2023-04-03T08:56:26;14.30;99.90
12588;DHT22;6359;51.450;7.346;2023-04-03T08:58:57;13.90;99.90
12588;DHT22;6359;51.450;7.346;2023-04-03T09:01:29;14.30;99.90
12588;DHT22;6359;51.450;7.346;2023-04-03T09:03:56;14.60;99.90
12588;DHT22;6359;51.450;7.346;2023-04-03T09:06:26;14.90;99.90
12588;DHT22;6359;51.450;7.346;2023-04-03T09:09:04;15.20;99.90
12588;DHT22;6359;51.450;7.346;2023-04-03T09:11:46;15.60;99.90
12588;DHT22;6359;51.450;7.346;2023-04-03T09:14:23;15.90;99.90
12588;DHT22;6359;51.450;7.346;2023-04-03T09:16:55;15.50;99.90
12588;DHT22;6359;51.450;7.346;2023-04-03T09:19:34;15.90;99.90
12588;DHT22;6359;51.450;7.346;2023-04-03T09:22:09;15.80;99.90
12588;DHT22;6359;51.450;7.346;2023-04-03T09:24:38;15.60;99.90
12588;DHT22;6359;51.450;7.346;2023-04-03T09:27:09;16.20;99.90
12588;DHT22;6359;51.450;7.346;2023-04-03T09:29:40;16.70;99.90
12588;DHT22;6359;51.450;7.346;2023-04-03T09:32:19;17.00;99.90
12588;DHT22;6359;51.450;7.346;2023-04-03T09:37:32;15.50;99.90
12588;DHT22;6359;51.450;7.346;2023-04-03T09:40:00;15.80;99.90
12588;DHT22;6359;51.450;7.346;2023-04-03T09:42:27;16.10;99.90
12588;DHT22;6359;51.450;7.346;2023-04-03T09:44:58;16.60;99.90
12588;DHT22;6359;51.450;7.346;2023-04-03T09:47:25;17.20;99.90
12588;DHT22;6359;51.450;7.346;2023-04-03T09:50:08;17.40;99.90
12588;DHT22;6359;51.450;7.346;2023-04-03T09:52:35;16.30;99.90
12588;DHT22;6359;51.450;7.346;2023-04-03T09:55:06;18.60;99.90
12588;DHT22;6359;51.450;7.346;2023-04-03T09:57:33;16.60;99.90
12588;DHT22;6359;51.450;7.346;2023-04-03T10:00:03;16.40;99.90
12588;DHT22;6359;51.450;7.346;2023-04-03T10:02:35;16.50;99.90
12588;DHT22;6359;51.450;7.346;2023-04-03T10:05:04;16.60;99.90
12588;DHT22;6359;51.450;7.346;2023-04-03T10:07:34;15.20;99.90
12588;DHT22;6359;51.450;7.346;2023-04-03T10:10:03;14.30;99.90
12588;DHT22;6359;51.450;7.346;2023-04-03T10:12:42;14.10;99.90
12588;DHT22;6359;51.450;7.346;2023-04-03T10:15:13;14.60;99.90
12588;DHT22;6359;51.450;7.346;2023-04-03T10:17:49;15.10;99.90
12588;DHT22;6359;51.450;7.346;2023-04-03T10:20:29;15.70;99.90
12588;DHT22;6359;51.450;7.346;2023-04-03T10:23:05;15.80;99.90
12588;DHT22;6359;51.450;7.346;2023-04-03T10:25:43;16.50;99.90
12588;DHT22;6359;51.450;7.346;2023-04-03T10:28:16;15.50;99.90
12588;DHT22;6359;51.450;7.346;2023-04-03T10:30:53;15.70;99.90
12588;DHT22;6359;51.450;7.346;2023-04-03T10:33:32;15.60;99.90
12588;DHT22;6359;51.450;7.346;2023-04-03T10:36:09;15.10;99.90
12588;DHT22;6359;51.450;7.346;2023-04-03T10:38:44;14.10;99.90
12588;DHT22;6359;51.450;7.346;2023-04-03T10:41:18;14.00;99.90
12588;DHT22;6359;51.450;7.346;2023-04-03T10:43:53;14.10;99.90
12588;DHT22;6359;51.450;7.346;2023-04-03T10:46:28;13.50;99.90
12588;DHT22;6359;51.450;7.346;2023-04-03T10:49:21;12.70;99.90
12588;DHT22;6359;51.450;7.346;2023-04-03T10:51:58;13.60;99.90
12588;DHT22;6359;51.450;7.346;2023-04-03T10:54:33;13.20;99.90
12588;DHT22;6359;51.450;7.346;2023-04-03T10:57:04;13.70;99.90
12588;DHT22;6359;51.450;7.346;2023-04-03T10:59:33;13.50;99.90
12588;DHT22;6359;51.450;7.346;2023-04-03T11:02:07;13.40;99.90
12588;DHT22;6359;51.450;7.346;2023-04-03T11:04:39;13.30;99.90
12588;DHT22;6359;51.450;7.346;2023-04-03T11:07:11;13.50;99.90
12588;DHT22;6359;51.450;7.346;2023-04-03T11:09:41;13.70;99.90
12588;DHT22;6359;51.450;7.346;2023-04-03T11:12:14;13.60;99.90
12588;DHT22;6359;51.450;7.346;2023-04-03T11:14:43;12.90;99.90
12588;DHT22;6359;51.450;7.346;2023-04-03T11:17:26;12.60;99.90
12588;DHT22;6359;51.450;7.346;2023-04-03T11:20:01;12.40;99.90
12588;DHT22;6359;51.450;7.346;2023-04-03T11:22:33;12.30;99.90
12588;DHT22;6359;51.450;7.346;2023-04-03T11:25:06;11.30;99.90
12588;DHT22;6359;51.450;7.346;2023-04-03T11:27:48;11.50;99.90
12588;DHT22;6359;51.450;7.346;2023-04-03T11:30:19;11.90;99.90
12588;DHT22;6359;51.450;7.346;2023-04-03T11:33:13;11.00;99.90
12588;DHT22;6359;51.450;7.346;2023-04-03T11:35:44;10.40;99.90
12588;DHT22;6359;51.450;7.346;2023-04-03T11:38:18;9.50;99.90
12588;DHT22;6359;51.450;7.346;2023-04-03T11:40:47;9.30;99.90
12588;DHT22;6359;51.450;7.346;2023-04-03T11:43:23;8.90;99.90
12588;DHT22;6359;51.450;7.346;2023-04-03T11:45:57;9.00;99.90
12588;DHT22;6359;51.450;7.346;2023-04-03T11:48:46;8.90;99.90
12588;DHT22;6359;51.450;7.346;2023-04-03T11:51:47;9.00;99.90
12588;DHT22;6359;51.450;7.346;2023-04-03T11:54:43;8.80;99.90
12588;DHT22;6359;51.450;7.346;2023-04-03T11:57:43;8.90;99.90
12588;DHT22;6359;51.450;7.346;2023-04-03T12:04:09;8.90;99.90
12588;DHT22;6359;51.450;7.346;2023-04-03T12:10:01;8.90;99.90
12588;DHT22;6359;51.450;7.346;2023-04-03T12:12:31;8.90;99.90
12588;DHT22;6359;51.450;7.346;2023-04-03T12:15:23;8.80;99.90
12588;DHT22;6359;51.450;7.346;2023-04-03T12:17:51;8.80;99.90
12588;DHT22;6359;51.450;7.346;2023-04-03T12:20:56;8.60;99.90
12588;DHT22;6359;51.450;7.346;2023-04-03T12:23:30;9.10;99.90
12588;DHT22;6359;51.450;7.346;2023-04-03T12:26:04;9.00;99.90
12588;DHT22;6359;51.450;7.346;2023-04-03T12:28:38;8.40;99.90
12588;DHT22;6359;51.450;7.346;2023-04-03T12:31:09;8.70;99.90
12588;DHT22;6359;51.450;7.346;2023-04-03T12:33:49;8.90;99.90
12588;DHT22;6359;51.450;7.346;2023-04-03T12:36:30;9.00;99.90
12588;DHT22;6359;51.450;7.346;2023-04-03T12:42:17;9.10;99.90
12588;DHT22;6359;51.450;7.346;2023-04-03T12:44:56;8.40;99.90
12588;DHT22;6359;51.450;7.346;2023-04-03T12:47:30;8.40;99.90
12588;DHT22;6359;51.450;7.346;2023-04-03T12:50:02;8.60;99.90
12588;DHT22;6359;51.450;7.346;2023-04-03T12:52:35;8.70;99.90
12588;DHT22;6359;51.450;7.346;2023-04-03T12:55:08;8.40;99.90
12588;DHT22;6359;51.450;7.346;2023-04-03T12:57:40;8.60;99.90
12588;DHT22;6359;51.450;7.346;2023-04-03T13:00:24;8.90;99.90
12588;DHT22;6359;51.450;7.346;2023-04-03T13:02:53;9.00;99.90
12588;DHT22;6359;51.450;7.346;2023-04-03T13:05:22;8.80;99.90
12588;DHT22;6359;51.450;7.346;2023-04-03T13:07:54;8.90;99.90
12588;DHT22;6359;51.450;7.346;2023-04-03T13:10:24;8.70;99.90
12588;DHT22;6359;51.450;7.346;2023-04-03T13:12:53;8.60;99.90
12588;DHT22;6359;51.450;7.346;2023-04-03T13:15:23;8.50;99.90
12588;DHT22;6359;51.450;7.346;2023-04-03T13:17:51;8.60;99.90
12588;DHT22;6359;51.450;7.346;2023-04-03T13:20:21;8.70;99.90
12588;DHT22;6359;51.450;7.346;2023-04-03T13:22:57;8.70;99.90
12588;DHT22;6359;51.450;7.346;2023-04-03T13:25:28;8.80;99.90
12588;DHT22;6359;51.450;7.346;2023-04-03T13:27:56;8.90;99.90
12588;DHT22;6359;51.450;7.346;2023-04-03T13:30:28;9.10;99.90
12588;DHT22;6359;51.450;7.346;2023-04-03T13:32:58;9.20;99.90
12588;DHT22;6359;51.450;7.346;2023-04-03T13:35:28;8.90;99.90
12588;DHT22;6359;51.450;7.346;2023-04-03T13:37:58;8.50;99.90
12588;DHT22;6359;51.450;7.346;2023-04-03T13:40:26;8.50;99.90
12588;DHT22;6359;51.450;7.346;2023-04-03T13:43:02;8.60;99.90
12588;DHT22;6359;51.450;7.346;2023-04-03T13:45:29;8.50;99.90
12588;DHT22;6359;51.450;7.346;2023-04-03T13:48:16;8.40;99.90
12588;DHT22;6359;51.450;7.346;2023-04-03T13:50:54;8.70;99.90
12588;DHT22;6359;51.450;7.346;2023-04-03T13:53:24;8.50;99.90
12588;DHT22;6359;51.450;7.346;2023-04-03T13:55:58;8.50;99.90
12588;DHT22;6359;51.450;7.346;2023-04-03T13:58:27;8.40;99.90
12588;DHT22;6359;51.450;7.346;2023-04-03T14:00:56;8.40;99.90
12588;DHT22;6359;51.450;7.346;2023-04-03T14:03:30;8.40;99.90
12588;DHT22;6359;51.450;7.346;2023-04-03T14:05:58;8.50;99.90
12588;DHT22;6359;51.450;7.346;2023-04-03T14:08:27;8.30;99.90
12588;DHT22;6359;51.450;7.346;2023-04-03T14:10:54;8.40;99.90
12588;DHT22;6359;51.450;7.346;2023-04-03T14:13:22;8.50;99.90
12588;DHT22;6359;51.450;7.346;2023-04-03T14:15:49;8.40;99.90
12588;DHT22;6359;51.450;7.346;2023-04-03T14:18:21;8.20;99.90
12588;DHT22;6359;51.450;7.346;2023-04-03T14:20:49;8.20;99.90
12588;DHT22;6359;51.450;7.346;2023-04-03T14:23:16;8.30;99.90
12588;DHT22;6359;51.450;7.346;2023-04-03T14:25:44;8.30;99.90
12588;DHT22;6359;51.450;7.346;2023-04-03T14:28:15;8.40;99.90
12588;DHT22;6359;51.450;7.346;2023-04-03T14:30:43;8.30;99.90
12588;DHT22;6359;51.450;7.346;2023-04-03T14:33:13;8.40;99.90
12588;DHT22;6359;51.450;7.346;2023-04-03T14:35:41;8.50;99.90
12588;DHT22;6359;51.450;7.346;2023-04-03T14:38:21;8.60;99.90
12588;DHT22;6359;51.450;7.346;2023-04-03T14:40:51;8.30;99.90
12588;DHT22;6359;51.450;7.346;2023-04-03T14:43:19;8.20;99.90
12588;DHT22;6359;51.450;7.346;2023-04-03T14:45:46;8.20;99.90
12588;DHT22;6359;51.450;7.346;2023-04-03T14:48:18;8.20;99.90
12588;DHT22;6359;51.450;7.346;2023-04-03T14:50:46;8.20;99.90
12588;DHT22;6359;51.450;7.346;2023-04-03T14:53:15;8.30;99.90
12588;DHT22;6359;51.450;7.346;2023-04-03T14:55:44;8.30;99.90
12588;DHT22;6359;51.450;7.346;2023-04-03T14:58:15;8.30;99.90
12588;DHT22;6359;51.450;7.346;2023-04-03T15:00:43;8.30;99.90
12588;DHT22;6359;51.450;7.346;2023-04-03T15:03:14;8.10;99.90
12588;DHT22;6359;51.450;7.346;2023-04-03T15:05:42;8.20;99.90
12588;DHT22;6359;51.450;7.346;2023-04-03T15:08:18;8.20;99.90
12588;DHT22;6359;51.450;7.346;2023-04-03T15:10:46;8.20;99.90
12588;DHT22;6359;51.450;7.346;2023-04-03T15:13:15;8.30;99.90
12588;DHT22;6359;51.450;7.346;2023-04-03T15:15:42;8.30;99.90
12588;DHT22;6359;51.450;7.346;2023-04-03T15:18:15;8.30;99.90
12588;DHT22;6359;51.450;7.346;2023-04-03T15:20:43;8.30;99.90
12588;DHT22;6359;51.450;7.346;2023-04-03T15:23:11;8.20;99.90
12588;DHT22;6359;51.450;7.346;2023-04-03T15:25:41;8.30;99.90
12588;DHT22;6359;51.450;7.346;2023-04-03T15:28:10;8.10;99.90
12588;DHT22;6359;51.450;7.346;2023-04-03T15:30:42;8.10;99.90
12588;DHT22;6359;51.450;7.346;2023-04-03T15:33:09;8.20;99.90
12588;DHT22;6359;51.450;7.346;2023-04-03T15:35:36;8.20;99.90
12588;DHT22;6359;51.450;7.346;2023-04-03T15:38:03;8.30;99.90
12588;DHT22;6359;51.450;7.346;2023-04-03T15:40:30;8.20;99.90
12588;DHT22;6359;51.450;7.346;2023-04-03T15:42:57;8.10;99.90
12588;DHT22;6359;51.450;7.346;2023-04-03T15:45:24;8.00;99.90
12588;DHT22;6359;51.450;7.346;2023-04-03T15:47:54;8.00;99.90
12588;DHT22;6359;51.450;7.346;2023-04-03T15:50:21;8.10;99.90
12588;DHT22;6359;51.450;7.346;2023-04-03T15:52:49;8.00;99.90
12588;DHT22;6359;51.450;7.346;2023-04-03T15:55:20;8.00;99.90
12588;DHT22;6359;51.450;7.346;2023-04-03T15:57:47;8.00;99.90
12588;DHT22;6359;51.450;7.346;2023-04-03T16:00:14;7.80;99.90
12588;DHT22;6359;51.450;7.346;2023-04-03T16:02:42;7.80;99.90
12588;DHT22;6359;51.450;7.346;2023-04-03T16:05:11;7.80;99.90
12588;DHT22;6359;51.450;7.346;2023-04-03T16:07:39;7.80;99.90
12588;DHT22;6359;51.450;7.346;2023-04-03T16:10:08;7.80;99.90
12588;DHT22;6359;51.450;7.346;2023-04-03T16:12:35;7.80;99.90
12588;DHT22;6359;51.450;7.346;2023-04-03T16:15:03;7.70;99.90
12588;DHT22;6359;51.450;7.346;2023-04-03T16:17:31;7.70;99.90
12588;DHT22;6359;51.450;7.346;2023-04-03T16:19:59;7.70;99.90
12588;DHT22;6359;51.450;7.346;2023-04-03T16:22:28;7.60;99.90
12588;DHT22;6359;51.450;7.346;2023-04-03T16:24:56;7.60;99.90
12588;DHT22;6359;51.450;7.346;2023-04-03T16:27:23;7.50;99.90